sensor_id;sensor_type;location;lat;lon;timestamp;P1;durP1;ratioP1;P2;durP2;ratioP2
16954;SDS011;8594;52.052;8.354;2024-03-02T00:01:21;12.93;;;7.93;;
16954;SDS011;8594;52.052;8.354;2024-03-02T00:03:48;15.13;;;8.23;;
16954;SDS011;8594;52.052;8.354;2024-03-02T00:06:15;14.07;;;8.43;;
16954;SDS011;8594;52.052;8.354;2024-03-02T00:08:46;14.43;;;8.57;;
16954;SDS011;8594;52.052;8.354;2024-03-02T00:11:14;15.73;;;8.53;;
16954;SDS011;8594;52.052;8.354;2024-03-02T00:13:41;14.40;;;8.63;;
16954;SDS011;8594;52.052;8.354;2024-03-02T00:16:08;15.13;;;8.63;;
16954;SDS011;8594;52.052;8.354;2024-03-02T00:18:36;15.57;;;9.10;;
16954;SDS011;8594;52.052;8.354;2024-03-02T00:21:03;17.37;;;9.10;;
16954;SDS011;8594;52.052;8.354;2024-03-02T00:23:34;17.97;;;9.30;;
16954;SDS011;8594;52.052;8.354;2024-03-02T00:26:02;14.60;;;9.53;;
16954;SDS011;8594;52.052;8.354;2024-03-02T00:28:31;16.33;;;9.03;;
16954;SDS011;8594;52.052;8.354;2024-03-02T00:31:01;17.60;;;10.17;;
16954;SDS011;8594;52.052;8.354;2024-03-02T00:33:31;16.67;;;9.10;;
16954;SDS011;8594;52.052;8.354;2024-03-02T00:35:59;16.87;;;9.27;;
16954;SDS011;8594;52.052;8.354;2024-03-02T00:38:28;16.80;;;9.20;;
16954;SDS011;8594;52.052;8.354;2024-03-02T00:40:55;15.50;;;8.63;;
16954;SDS011;8594;52.052;8.354;2024-03-02T00:43:45;16.60;;;9.23;;
16954;SDS011;8594;52.052;8.354;2024-03-02T00:46:20;14.63;;;8.40;;
16954;SDS011;8594;52.052;8.354;2024-03-02T00:48:51;16.27;;;9.30;;
16954;SDS011;8594;52.052;8.354;2024-03-02T00:51:21;15.57;;;9.33;;
16954;SDS011;8594;52.052;8.354;2024-03-02T00:53:49;14.93;;;8.73;;
16954;SDS011;8594;52.052;8.354;2024-03-02T00:56:17;17.73;;;9.93;;
16954;SDS011;8594;52.052;8.354;2024-03-02T00:58:45;16.80;;;9.47;;
16954;SDS011;8594;52.052;8.354;2024-03-02T01:01:12;17.03;;;9.83;;
16954;SDS011;8594;52.052;8.354;2024-03-02T01:03:39;13.80;;;8.30;;
16954;SDS011;8594;52.052;8.354;2024-03-02T01:06:07;17.80;;;9.70;;
16954;SDS011;8594;52.052;8.354;2024-03-02T01:08:34;18.03;;;9.53;;
16954;SDS011;8594;52.052;8.354;2024-03-02T01:11:01;16.37;;;9.17;;
16954;SDS011;8594;52.052;8.354;2024-03-02T01:13:29;19.07;;;9.27;;
16954;SDS011;8594;52.052;8.354;2024-03-02T01:15:58;18.47;;;10.47;;
16954;SDS011;8594;52.052;8.354;2024-03-02T01:18:25;15.57;;;9.70;;
16954;SDS011;8594;52.052;8.354;2024-03-02T01:20:52;17.60;;;9.80;;
16954;SDS011;8594;52.052;8.354;2024-03-02T01:23:20;15.77;;;9.43;;
16954;SDS011;8594;52.052;8.354;2024-03-02T01:25:48;15.53;;;9.47;;
16954;SDS011;8594;52.052;8.354;2024-03-02T01:28:15;16.27;;;9.63;;
16954;SDS011;8594;52.052;8.354;2024-03-02T01:30:42;15.77;;;8.97;;
16954;SDS011;8594;52.052;8.354;2024-03-02T01:33:10;16.53;;;9.03;;
16954;SDS011;8594;52.052;8.354;2024-03-02T01:35:37;16.53;;;8.43;;
16954;SDS011;8594;52.052;8.354;2024-03-02T01:38:03;15.80;;;9.47;;
16954;SDS011;8594;52.052;8.354;2024-03-02T01:40:32;16.53;;;9.13;;
16954;SDS011;8594;52.052;8.354;2024-03-02T01:42:59;19.17;;;10.17;;
16954;SDS011;8594;52.052;8.354;2024-03-02T01:45:27;21.03;;;9.53;;
16954;SDS011;8594;52.052;8.354;2024-03-02T01:47:54;15.73;;;9.13;;
16954;SDS011;8594;52.052;8.354;2024-03-02T01:50:26;20.40;;;9.90;;
16954;SDS011;8594;52.052;8.354;2024-03-02T01:52:53;16.10;;;9.13;;
16954;SDS011;8594;52.052;8.354;2024-03-02T01:55:21;15.20;;;9.67;;
16954;SDS011;8594;52.052;8.354;2024-03-02T01:57:48;14.93;;;9.23;;
16954;SDS011;8594;52.052;8.354;2024-03-02T02:00:17;16.37;;;9.07;;
16954;SDS011;8594;52.052;8.354;2024-03-02T02:02:45;15.83;;;8.77;;
16954;SDS011;8594;52.052;8.354;2024-03-02T02:05:12;16.57;;;9.77;;
16954;SDS011;8594;52.052;8.354;2024-03-02T02:07:41;16.70;;;9.33;;
16954;SDS011;8594;52.052;8.354;2024-03-02T02:10:08;17.70;;;9.43;;
16954;SDS011;8594;52.052;8.354;2024-03-02T02:12:36;15.83;;;8.77;;
16954;SDS011;8594;52.052;8.354;2024-03-02T02:15:03;15.23;;;8.53;;
16954;SDS011;8594;52.052;8.354;2024-03-02T02:17:47;14.23;;;8.30;;
16954;SDS011;8594;52.052;8.354;2024-03-02T02:20:13;17.67;;;9.83;;
16954;SDS011;8594;52.052;8.354;2024-03-02T02:22:41;14.00;;;8.80;;
16954;SDS011;8594;52.052;8.354;2024-03-02T02:25:23;15.20;;;8.60;;
16954;SDS011;8594;52.052;8.354;2024-03-02T02:27:50;14.83;;;9.70;;
16954;SDS011;8594;52.052;8.354;2024-03-02T02:30:20;17.03;;;9.37;;
16954;SDS011;8594;52.052;8.354;2024-03-02T02:32:49;15.13;;;8.20;;
16954;SDS011;8594;52.052;8.354;2024-03-02T02:35:16;15.67;;;9.43;;
16954;SDS011;8594;52.052;8.354;2024-03-02T02:37:44;14.77;;;8.73;;
16954;SDS011;8594;52.052;8.354;2024-03-02T02:40:13;19.60;;;9.20;;
16954;SDS011;8594;52.052;8.354;2024-03-02T02:42:40;14.50;;;8.67;;
16954;SDS011;8594;52.052;8.354;2024-03-02T02:45:07;20.50;;;9.50;;
16954;SDS011;8594;52.052;8.354;2024-03-02T02:47:35;16.03;;;8.37;;
16954;SDS011;8594;52.052;8.354;2024-03-02T02:50:02;14.47;;;8.47;;
16954;SDS011;8594;52.052;8.354;2024-03-02T02:52:31;15.30;;;8.30;;
16954;SDS011;8594;52.052;8.354;2024-03-02T02:55:01;14.93;;;8.63;;
16954;SDS011;8594;52.052;8.354;2024-03-02T02:57:30;16.27;;;8.43;;
16954;SDS011;8594;52.052;8.354;2024-03-02T03:00:00;12.60;;;7.63;;
16954;SDS011;8594;52.052;8.354;2024-03-02T03:02:35;15.23;;;8.70;;
16954;SDS011;8594;52.052;8.354;2024-03-02T03:05:03;12.97;;;8.20;;
16954;SDS011;8594;52.052;8.354;2024-03-02T03:07:31;13.77;;;8.13;;
16954;SDS011;8594;52.052;8.354;2024-03-02T03:09:58;14.37;;;8.40;;
16954;SDS011;8594;52.052;8.354;2024-03-02T03:12:26;12.27;;;7.80;;
16954;SDS011;8594;52.052;8.354;2024-03-02T03:14:53;12.90;;;8.23;;
16954;SDS011;8594;52.052;8.354;2024-03-02T03:17:20;13.17;;;8.10;;
16954;SDS011;8594;52.052;8.354;2024-03-02T03:19:47;13.23;;;8.07;;
16954;SDS011;8594;52.052;8.354;2024-03-02T03:22:14;20.37;;;7.93;;
16954;SDS011;8594;52.052;8.354;2024-03-02T03:24:41;12.93;;;7.73;;
16954;SDS011;8594;52.052;8.354;2024-03-02T03:27:08;15.33;;;8.77;;
16954;SDS011;8594;52.052;8.354;2024-03-02T03:29:37;15.50;;;8.43;;
16954;SDS011;8594;52.052;8.354;2024-03-02T03:32:04;16.13;;;8.93;;
16954;SDS011;8594;52.052;8.354;2024-03-02T03:34:32;16.07;;;9.23;;
16954;SDS011;8594;52.052;8.354;2024-03-02T03:36:59;15.00;;;8.33;;
16954;SDS011;8594;52.052;8.354;2024-03-02T03:39:26;13.57;;;8.23;;
16954;SDS011;8594;52.052;8.354;2024-03-02T03:41:53;15.60;;;9.07;;
16954;SDS011;8594;52.052;8.354;2024-03-02T03:44:20;15.87;;;9.50;;
16954;SDS011;8594;52.052;8.354;2024-03-02T03:46:48;15.57;;;9.27;;
16954;SDS011;8594;52.052;8.354;2024-03-02T03:49:14;18.13;;;9.80;;
16954;SDS011;8594;52.052;8.354;2024-03-02T03:51:42;17.57;;;9.80;;
16954;SDS011;8594;52.052;8.354;2024-03-02T03:54:09;17.87;;;9.97;;
16954;SDS011;8594;52.052;8.354;2024-03-02T03:56:36;18.37;;;10.63;;
16954;SDS011;8594;52.052;8.354;2024-03-02T03:59:03;16.17;;;9.77;;
16954;SDS011;8594;52.052;8.354;2024-03-02T04:01:29;16.97;;;9.93;;
16954;SDS011;8594;52.052;8.354;2024-03-02T04:03:58;17.77;;;10.67;;
16954;SDS011;8594;52.052;8.354;2024-03-02T04:06:26;18.53;;;10.60;;
16954;SDS011;8594;52.052;8.354;2024-03-02T04:08:53;17.87;;;9.97;;
16954;SDS011;8594;52.052;8.354;2024-03-02T04:11:20;18.77;;;10.63;;
16954;SDS011;8594;52.052;8.354;2024-03-02T04:13:47;18.27;;;10.87;;
16954;SDS011;8594;52.052;8.354;2024-03-02T04:16:14;19.27;;;11.40;;
16954;SDS011;8594;52.052;8.354;2024-03-02T04:18:40;16.43;;;10.90;;
16954;SDS011;8594;52.052;8.354;2024-03-02T04:21:09;20.27;;;11.03;;
16954;SDS011;8594;52.052;8.354;2024-03-02T04:23:36;18.50;;;11.07;;
16954;SDS011;8594;52.052;8.354;2024-03-02T04:26:03;20.73;;;10.80;;
16954;SDS011;8594;52.052;8.354;2024-03-02T04:28:30;20.33;;;11.63;;
16954;SDS011;8594;52.052;8.354;2024-03-02T04:30:56;19.70;;;11.23;;
16954;SDS011;8594;52.052;8.354;2024-03-02T04:33:23;19.80;;;11.50;;
16954;SDS011;8594;52.052;8.354;2024-03-02T04:35:50;20.63;;;11.23;;
16954;SDS011;8594;52.052;8.354;2024-03-02T04:38:18;19.43;;;11.23;;
16954;SDS011;8594;52.052;8.354;2024-03-02T04:40:44;21.20;;;12.30;;
16954;SDS011;8594;52.052;8.354;2024-03-02T04:43:11;20.93;;;11.07;;
16954;SDS011;8594;52.052;8.354;2024-03-02T04:45:41;20.80;;;11.80;;
16954;SDS011;8594;52.052;8.354;2024-03-02T04:48:08;23.67;;;12.33;;
16954;SDS011;8594;52.052;8.354;2024-03-02T04:50:35;24.00;;;12.37;;
16954;SDS011;8594;52.052;8.354;2024-03-02T04:53:02;26.60;;;12.83;;
16954;SDS011;8594;52.052;8.354;2024-03-02T04:55:30;21.57;;;12.20;;
16954;SDS011;8594;52.052;8.354;2024-03-02T04:58:23;21.17;;;12.53;;
16954;SDS011;8594;52.052;8.354;2024-03-02T05:00:49;24.23;;;12.87;;
16954;SDS011;8594;52.052;8.354;2024-03-02T05:03:16;25.87;;;12.63;;
16954;SDS011;8594;52.052;8.354;2024-03-02T05:05:43;23.87;;;12.70;;
16954;SDS011;8594;52.052;8.354;2024-03-02T05:08:10;20.63;;;12.17;;
16954;SDS011;8594;52.052;8.354;2024-03-02T05:10:38;23.33;;;12.40;;
16954;SDS011;8594;52.052;8.354;2024-03-02T05:13:05;24.03;;;12.93;;
16954;SDS011;8594;52.052;8.354;2024-03-02T05:15:32;23.90;;;13.23;;
16954;SDS011;8594;52.052;8.354;2024-03-02T05:17:58;25.83;;;13.37;;
16954;SDS011;8594;52.052;8.354;2024-03-02T05:20:27;23.43;;;13.70;;
16954;SDS011;8594;52.052;8.354;2024-03-02T05:22:54;23.97;;;13.03;;
16954;SDS011;8594;52.052;8.354;2024-03-02T05:25:20;25.10;;;13.27;;
16954;SDS011;8594;52.052;8.354;2024-03-02T05:27:49;23.30;;;12.93;;
16954;SDS011;8594;52.052;8.354;2024-03-02T05:30:15;26.80;;;14.60;;
16954;SDS011;8594;52.052;8.354;2024-03-02T05:32:42;24.47;;;13.43;;
16954;SDS011;8594;52.052;8.354;2024-03-02T05:35:09;24.23;;;13.63;;
16954;SDS011;8594;52.052;8.354;2024-03-02T05:37:37;26.03;;;13.40;;
16954;SDS011;8594;52.052;8.354;2024-03-02T05:40:05;28.40;;;13.43;;
16954;SDS011;8594;52.052;8.354;2024-03-02T05:42:33;26.03;;;14.23;;
16954;SDS011;8594;52.052;8.354;2024-03-02T05:45:01;25.10;;;13.80;;
16954;SDS011;8594;52.052;8.354;2024-03-02T05:47:28;27.17;;;13.90;;
16954;SDS011;8594;52.052;8.354;2024-03-02T05:49:55;27.60;;;13.50;;
16954;SDS011;8594;52.052;8.354;2024-03-02T05:52:21;23.47;;;13.33;;
16954;SDS011;8594;52.052;8.354;2024-03-02T05:54:48;24.97;;;13.97;;
16954;SDS011;8594;52.052;8.354;2024-03-02T05:57:15;28.33;;;13.97;;
16954;SDS011;8594;52.052;8.354;2024-03-02T05:59:54;27.47;;;13.57;;
16954;SDS011;8594;52.052;8.354;2024-03-02T06:02:22;26.83;;;13.87;;
16954;SDS011;8594;52.052;8.354;2024-03-02T06:04:48;26.13;;;13.43;;
16954;SDS011;8594;52.052;8.354;2024-03-02T06:07:15;23.67;;;13.03;;
16954;SDS011;8594;52.052;8.354;2024-03-02T06:09:42;25.90;;;13.57;;
16954;SDS011;8594;52.052;8.354;2024-03-02T06:12:09;27.50;;;14.33;;
16954;SDS011;8594;52.052;8.354;2024-03-02T06:14:36;26.57;;;14.40;;
16954;SDS011;8594;52.052;8.354;2024-03-02T06:17:03;24.33;;;13.60;;
16954;SDS011;8594;52.052;8.354;2024-03-02T06:19:31;23.77;;;13.60;;
16954;SDS011;8594;52.052;8.354;2024-03-02T06:21:58;27.60;;;14.73;;
16954;SDS011;8594;52.052;8.354;2024-03-02T06:24:25;27.23;;;14.67;;
16954;SDS011;8594;52.052;8.354;2024-03-02T06:26:51;28.00;;;13.53;;
16954;SDS011;8594;52.052;8.354;2024-03-02T06:29:18;23.90;;;13.87;;
16954;SDS011;8594;52.052;8.354;2024-03-02T06:31:45;26.87;;;13.60;;
16954;SDS011;8594;52.052;8.354;2024-03-02T06:34:11;28.40;;;13.57;;
16954;SDS011;8594;52.052;8.354;2024-03-02T06:36:39;27.23;;;14.80;;
16954;SDS011;8594;52.052;8.354;2024-03-02T06:39:07;27.30;;;13.73;;
16954;SDS011;8594;52.052;8.354;2024-03-02T06:41:35;25.67;;;13.90;;
16954;SDS011;8594;52.052;8.354;2024-03-02T06:44:02;23.47;;;12.90;;
16954;SDS011;8594;52.052;8.354;2024-03-02T06:46:29;26.47;;;13.93;;
16954;SDS011;8594;52.052;8.354;2024-03-02T06:48:55;26.37;;;13.77;;
16954;SDS011;8594;52.052;8.354;2024-03-02T06:51:22;30.00;;;14.70;;
16954;SDS011;8594;52.052;8.354;2024-03-02T06:53:50;26.63;;;14.77;;
16954;SDS011;8594;52.052;8.354;2024-03-02T06:56:17;28.07;;;14.20;;
16954;SDS011;8594;52.052;8.354;2024-03-02T06:58:43;29.07;;;15.57;;
16954;SDS011;8594;52.052;8.354;2024-03-02T07:01:10;27.17;;;14.23;;
16954;SDS011;8594;52.052;8.354;2024-03-02T07:03:37;27.20;;;13.80;;
16954;SDS011;8594;52.052;8.354;2024-03-02T07:06:04;24.00;;;13.63;;
16954;SDS011;8594;52.052;8.354;2024-03-02T07:08:31;25.67;;;13.50;;
16954;SDS011;8594;52.052;8.354;2024-03-02T07:10:59;24.77;;;13.67;;
16954;SDS011;8594;52.052;8.354;2024-03-02T07:13:26;26.90;;;14.03;;
16954;SDS011;8594;52.052;8.354;2024-03-02T07:15:53;32.77;;;14.30;;
16954;SDS011;8594;52.052;8.354;2024-03-02T07:18:37;28.03;;;13.33;;
16954;SDS011;8594;52.052;8.354;2024-03-02T07:21:06;25.17;;;13.10;;
16954;SDS011;8594;52.052;8.354;2024-03-02T07:23:33;25.37;;;13.80;;
16954;SDS011;8594;52.052;8.354;2024-03-02T07:26:02;24.80;;;13.93;;
16954;SDS011;8594;52.052;8.354;2024-03-02T07:28:29;25.80;;;14.50;;
16954;SDS011;8594;52.052;8.354;2024-03-02T07:30:58;27.33;;;14.00;;
16954;SDS011;8594;52.052;8.354;2024-03-02T07:33:26;23.53;;;13.50;;
16954;SDS011;8594;52.052;8.354;2024-03-02T07:35:53;25.67;;;13.50;;
16954;SDS011;8594;52.052;8.354;2024-03-02T07:38:21;25.77;;;13.83;;
16954;SDS011;8594;52.052;8.354;2024-03-02T07:40:48;26.40;;;13.20;;
16954;SDS011;8594;52.052;8.354;2024-03-02T07:43:17;24.03;;;13.43;;
16954;SDS011;8594;52.052;8.354;2024-03-02T07:45:44;28.10;;;12.43;;
16954;SDS011;8594;52.052;8.354;2024-03-02T07:48:10;23.67;;;13.00;;
16954;SDS011;8594;52.052;8.354;2024-03-02T07:50:39;25.10;;;12.80;;
16954;SDS011;8594;52.052;8.354;2024-03-02T07:53:05;26.70;;;13.30;;
16954;SDS011;8594;52.052;8.354;2024-03-02T07:55:33;26.90;;;13.00;;
16954;SDS011;8594;52.052;8.354;2024-03-02T07:58:00;24.87;;;12.50;;
16954;SDS011;8594;52.052;8.354;2024-03-02T08:00:28;21.07;;;12.03;;
16954;SDS011;8594;52.052;8.354;2024-03-02T08:02:55;20.83;;;11.43;;
16954;SDS011;8594;52.052;8.354;2024-03-02T08:05:22;20.57;;;12.03;;
16954;SDS011;8594;52.052;8.354;2024-03-02T08:07:49;20.13;;;10.97;;
16954;SDS011;8594;52.052;8.354;2024-03-02T08:10:17;19.07;;;11.07;;
16954;SDS011;8594;52.052;8.354;2024-03-02T08:12:45;19.67;;;11.67;;
16954;SDS011;8594;52.052;8.354;2024-03-02T08:15:12;19.70;;;11.23;;
16954;SDS011;8594;52.052;8.354;2024-03-02T08:17:40;19.67;;;11.73;;
16954;SDS011;8594;52.052;8.354;2024-03-02T08:20:10;19.23;;;10.63;;
16954;SDS011;8594;52.052;8.354;2024-03-02T08:22:37;21.10;;;11.73;;
16954;SDS011;8594;52.052;8.354;2024-03-02T08:25:04;20.03;;;11.17;;
16954;SDS011;8594;52.052;8.354;2024-03-02T08:27:32;19.70;;;11.50;;
16954;SDS011;8594;52.052;8.354;2024-03-02T08:29:59;18.93;;;11.07;;
16954;SDS011;8594;52.052;8.354;2024-03-02T08:32:28;18.67;;;10.83;;
16954;SDS011;8594;52.052;8.354;2024-03-02T08:34:56;17.13;;;10.33;;
16954;SDS011;8594;52.052;8.354;2024-03-02T08:37:23;16.63;;;10.23;;
16954;SDS011;8594;52.052;8.354;2024-03-02T08:39:50;16.47;;;9.63;;
16954;SDS011;8594;52.052;8.354;2024-03-02T08:42:16;17.27;;;9.63;;
16954;SDS011;8594;52.052;8.354;2024-03-02T08:44:43;19.37;;;9.60;;
16954;SDS011;8594;52.052;8.354;2024-03-02T08:47:10;15.70;;;8.97;;
16954;SDS011;8594;52.052;8.354;2024-03-02T08:49:37;14.80;;;9.93;;
16954;SDS011;8594;52.052;8.354;2024-03-02T08:52:05;14.87;;;9.17;;
16954;SDS011;8594;52.052;8.354;2024-03-02T08:54:32;14.33;;;8.10;;
16954;SDS011;8594;52.052;8.354;2024-03-02T08:57:00;15.63;;;9.57;;
16954;SDS011;8594;52.052;8.354;2024-03-02T08:59:27;15.53;;;9.30;;
16954;SDS011;8594;52.052;8.354;2024-03-02T09:01:54;16.50;;;9.70;;
16954;SDS011;8594;52.052;8.354;2024-03-02T09:04:21;14.70;;;8.47;;
16954;SDS011;8594;52.052;8.354;2024-03-02T09:06:47;15.43;;;9.27;;
16954;SDS011;8594;52.052;8.354;2024-03-02T09:09:16;14.97;;;9.27;;
16954;SDS011;8594;52.052;8.354;2024-03-02T09:11:43;15.77;;;8.23;;
16954;SDS011;8594;52.052;8.354;2024-03-02T09:14:11;14.80;;;8.03;;
16954;SDS011;8594;52.052;8.354;2024-03-02T09:16:39;14.80;;;8.00;;
16954;SDS011;8594;52.052;8.354;2024-03-02T09:19:06;13.43;;;7.87;;
16954;SDS011;8594;52.052;8.354;2024-03-02T09:21:34;12.10;;;7.80;;
16954;SDS011;8594;52.052;8.354;2024-03-02T09:24:01;14.03;;;8.10;;
16954;SDS011;8594;52.052;8.354;2024-03-02T09:26:30;12.40;;;7.67;;
16954;SDS011;8594;52.052;8.354;2024-03-02T09:28:56;12.40;;;7.37;;
16954;SDS011;8594;52.052;8.354;2024-03-02T09:31:23;17.23;;;8.10;;
16954;SDS011;8594;52.052;8.354;2024-03-02T09:33:50;12.63;;;7.47;;
16954;SDS011;8594;52.052;8.354;2024-03-02T09:36:17;15.90;;;7.33;;
16954;SDS011;8594;52.052;8.354;2024-03-02T09:38:44;14.53;;;7.20;;
16954;SDS011;8594;52.052;8.354;2024-03-02T09:41:11;10.53;;;6.10;;
16954;SDS011;8594;52.052;8.354;2024-03-02T09:43:39;11.07;;;6.17;;
16954;SDS011;8594;52.052;8.354;2024-03-02T09:46:07;9.87;;;6.13;;
16954;SDS011;8594;52.052;8.354;2024-03-02T09:48:35;10.60;;;6.93;;
16954;SDS011;8594;52.052;8.354;2024-03-02T09:51:03;10.60;;;6.03;;
16954;SDS011;8594;52.052;8.354;2024-03-02T09:53:31;10.30;;;5.87;;
16954;SDS011;8594;52.052;8.354;2024-03-02T09:55:59;10.90;;;6.27;;
16954;SDS011;8594;52.052;8.354;2024-03-02T09:58:26;13.30;;;6.47;;
16954;SDS011;8594;52.052;8.354;2024-03-02T10:00:54;11.60;;;6.13;;
16954;SDS011;8594;52.052;8.354;2024-03-02T10:03:21;10.33;;;5.97;;
16954;SDS011;8594;52.052;8.354;2024-03-02T10:05:50;10.43;;;6.00;;
16954;SDS011;8594;52.052;8.354;2024-03-02T10:08:17;9.07;;;5.70;;
16954;SDS011;8594;52.052;8.354;2024-03-02T10:10:44;9.87;;;6.40;;
16954;SDS011;8594;52.052;8.354;2024-03-02T10:13:11;10.30;;;5.60;;
16954;SDS011;8594;52.052;8.354;2024-03-02T10:15:40;8.23;;;5.50;;
16954;SDS011;8594;52.052;8.354;2024-03-02T10:18:10;9.50;;;5.47;;
16954;SDS011;8594;52.052;8.354;2024-03-02T10:20:37;9.77;;;6.00;;
16954;SDS011;8594;52.052;8.354;2024-03-02T10:23:11;11.57;;;6.03;;
16954;SDS011;8594;52.052;8.354;2024-03-02T10:25:40;10.00;;;5.83;;
16954;SDS011;8594;52.052;8.354;2024-03-02T10:28:07;11.20;;;5.83;;
16954;SDS011;8594;52.052;8.354;2024-03-02T10:30:34;8.80;;;5.73;;
16954;SDS011;8594;52.052;8.354;2024-03-02T10:33:02;9.57;;;5.80;;
16954;SDS011;8594;52.052;8.354;2024-03-02T10:35:31;10.97;;;6.00;;
16954;SDS011;8594;52.052;8.354;2024-03-02T10:38:01;11.57;;;6.00;;
16954;SDS011;8594;52.052;8.354;2024-03-02T10:40:31;12.83;;;7.13;;
16954;SDS011;8594;52.052;8.354;2024-03-02T10:42:58;11.97;;;6.80;;
16954;SDS011;8594;52.052;8.354;2024-03-02T10:45:28;11.27;;;6.63;;
16954;SDS011;8594;52.052;8.354;2024-03-02T10:47:55;10.00;;;5.70;;
16954;SDS011;8594;52.052;8.354;2024-03-02T10:50:23;8.93;;;5.20;;
16954;SDS011;8594;52.052;8.354;2024-03-02T10:52:52;8.53;;;4.53;;
16954;SDS011;8594;52.052;8.354;2024-03-02T10:55:18;10.97;;;5.70;;
16954;SDS011;8594;52.052;8.354;2024-03-02T10:57:48;8.73;;;5.37;;
16954;SDS011;8594;52.052;8.354;2024-03-02T11:00:18;9.50;;;5.53;;
16954;SDS011;8594;52.052;8.354;2024-03-02T11:02:50;11.83;;;5.70;;
16954;SDS011;8594;52.052;8.354;2024-03-02T11:05:25;10.27;;;5.47;;
16954;SDS011;8594;52.052;8.354;2024-03-02T11:07:57;8.53;;;5.17;;
16954;SDS011;8594;52.052;8.354;2024-03-02T11:10:30;10.33;;;5.03;;
16954;SDS011;8594;52.052;8.354;2024-03-02T11:13:04;7.13;;;4.70;;
16954;SDS011;8594;52.052;8.354;2024-03-02T11:15:35;9.20;;;5.07;;
16954;SDS011;8594;52.052;8.354;2024-03-02T11:18:03;11.77;;;5.60;;
16954;SDS011;8594;52.052;8.354;2024-03-02T11:20:34;9.20;;;5.27;;
16954;SDS011;8594;52.052;8.354;2024-03-02T11:23:06;9.80;;;5.50;;
16954;SDS011;8594;52.052;8.354;2024-03-02T11:25:35;8.10;;;5.43;;
16954;SDS011;8594;52.052;8.354;2024-03-02T11:28:03;7.77;;;5.17;;
16954;SDS011;8594;52.052;8.354;2024-03-02T11:30:49;7.33;;;5.20;;
16954;SDS011;8594;52.052;8.354;2024-03-02T11:33:27;7.63;;;4.83;;
16954;SDS011;8594;52.052;8.354;2024-03-02T11:35:55;10.07;;;5.17;;
16954;SDS011;8594;52.052;8.354;2024-03-02T11:38:28;7.03;;;5.13;;
16954;SDS011;8594;52.052;8.354;2024-03-02T11:40:59;9.07;;;4.80;;
16954;SDS011;8594;52.052;8.354;2024-03-02T11:43:28;9.17;;;4.93;;
16954;SDS011;8594;52.052;8.354;2024-03-02T11:45:59;10.47;;;4.90;;
16954;SDS011;8594;52.052;8.354;2024-03-02T11:48:31;8.30;;;5.07;;
16954;SDS011;8594;52.052;8.354;2024-03-02T11:51:00;7.87;;;5.07;;
16954;SDS011;8594;52.052;8.354;2024-03-02T11:53:28;8.47;;;5.10;;
16954;SDS011;8594;52.052;8.354;2024-03-02T11:55:58;8.50;;;5.20;;
16954;SDS011;8594;52.052;8.354;2024-03-02T11:58:26;9.00;;;4.70;;
16954;SDS011;8594;52.052;8.354;2024-03-02T12:00:54;6.27;;;4.30;;
16954;SDS011;8594;52.052;8.354;2024-03-02T12:03:22;6.67;;;4.43;;
16954;SDS011;8594;52.052;8.354;2024-03-02T12:05:50;8.03;;;5.57;;
16954;SDS011;8594;52.052;8.354;2024-03-02T12:08:18;8.97;;;5.10;;
16954;SDS011;8594;52.052;8.354;2024-03-02T12:10:57;10.13;;;5.40;;
16954;SDS011;8594;52.052;8.354;2024-03-02T12:13:25;10.53;;;5.83;;
16954;SDS011;8594;52.052;8.354;2024-03-02T12:15:53;7.57;;;5.13;;
16954;SDS011;8594;52.052;8.354;2024-03-02T12:18:21;9.87;;;5.37;;
16954;SDS011;8594;52.052;8.354;2024-03-02T12:20:49;8.17;;;5.23;;
16954;SDS011;8594;52.052;8.354;2024-03-02T12:23:17;8.83;;;5.40;;
16954;SDS011;8594;52.052;8.354;2024-03-02T12:25:45;8.03;;;5.20;;
16954;SDS011;8594;52.052;8.354;2024-03-02T12:28:14;9.17;;;5.30;;
16954;SDS011;8594;52.052;8.354;2024-03-02T12:30:41;9.50;;;5.30;;
16954;SDS011;8594;52.052;8.354;2024-03-02T12:33:08;7.50;;;4.93;;
16954;SDS011;8594;52.052;8.354;2024-03-02T12:35:37;9.13;;;5.57;;
16954;SDS011;8594;52.052;8.354;2024-03-02T12:38:04;7.73;;;4.90;;
16954;SDS011;8594;52.052;8.354;2024-03-02T12:40:31;7.53;;;5.20;;
16954;SDS011;8594;52.052;8.354;2024-03-02T12:42:57;8.70;;;5.53;;
16954;SDS011;8594;52.052;8.354;2024-03-02T12:45:25;6.90;;;4.77;;
16954;SDS011;8594;52.052;8.354;2024-03-02T12:47:53;8.27;;;5.20;;
16954;SDS011;8594;52.052;8.354;2024-03-02T12:50:20;7.80;;;4.83;;
16954;SDS011;8594;52.052;8.354;2024-03-02T12:52:50;8.03;;;5.30;;
16954;SDS011;8594;52.052;8.354;2024-03-02T12:55:19;8.03;;;5.20;;
16954;SDS011;8594;52.052;8.354;2024-03-02T12:57:49;9.30;;;5.53;;
16954;SDS011;8594;52.052;8.354;2024-03-02T13:00:17;10.43;;;5.50;;
16954;SDS011;8594;52.052;8.354;2024-03-02T13:02:47;8.03;;;4.83;;
16954;SDS011;8594;52.052;8.354;2024-03-02T13:05:15;10.30;;;5.07;;
16954;SDS011;8594;52.052;8.354;2024-03-02T13:07:42;7.53;;;4.90;;
16954;SDS011;8594;52.052;8.354;2024-03-02T13:10:10;8.73;;;4.70;;
16954;SDS011;8594;52.052;8.354;2024-03-02T13:12:38;7.30;;;4.53;;
16954;SDS011;8594;52.052;8.354;2024-03-02T13:15:05;7.43;;;4.30;;
16954;SDS011;8594;52.052;8.354;2024-03-02T13:17:34;5.37;;;4.00;;
16954;SDS011;8594;52.052;8.354;2024-03-02T13:20:02;6.90;;;3.80;;
16954;SDS011;8594;52.052;8.354;2024-03-02T13:22:33;7.10;;;3.53;;
16954;SDS011;8594;52.052;8.354;2024-03-02T13:24:59;7.00;;;4.73;;
16954;SDS011;8594;52.052;8.354;2024-03-02T13:27:28;9.83;;;4.23;;
16954;SDS011;8594;52.052;8.354;2024-03-02T13:29:55;7.57;;;4.77;;
16954;SDS011;8594;52.052;8.354;2024-03-02T13:32:22;7.33;;;4.40;;
16954;SDS011;8594;52.052;8.354;2024-03-02T13:34:50;5.93;;;4.03;;
16954;SDS011;8594;52.052;8.354;2024-03-02T13:37:19;7.33;;;3.90;;
16954;SDS011;8594;52.052;8.354;2024-03-02T13:39:46;5.90;;;4.20;;
16954;SDS011;8594;52.052;8.354;2024-03-02T13:42:13;5.97;;;4.20;;
16954;SDS011;8594;52.052;8.354;2024-03-02T13:44:41;6.23;;;4.10;;
16954;SDS011;8594;52.052;8.354;2024-03-02T13:47:10;7.77;;;4.20;;
16954;SDS011;8594;52.052;8.354;2024-03-02T13:49:37;6.20;;;3.97;;
16954;SDS011;8594;52.052;8.354;2024-03-02T13:52:08;7.07;;;4.70;;
16954;SDS011;8594;52.052;8.354;2024-03-02T13:54:39;7.43;;;4.33;;
16954;SDS011;8594;52.052;8.354;2024-03-02T13:57:07;10.87;;;4.50;;
16954;SDS011;8594;52.052;8.354;2024-03-02T13:59:35;5.97;;;3.60;;
16954;SDS011;8594;52.052;8.354;2024-03-02T14:02:03;6.20;;;4.20;;
16954;SDS011;8594;52.052;8.354;2024-03-02T14:04:31;5.20;;;3.50;;
16954;SDS011;8594;52.052;8.354;2024-03-02T14:06:59;5.87;;;3.73;;
16954;SDS011;8594;52.052;8.354;2024-03-02T14:09:26;5.10;;;3.67;;
16954;SDS011;8594;52.052;8.354;2024-03-02T14:11:55;6.83;;;4.27;;
16954;SDS011;8594;52.052;8.354;2024-03-02T14:14:23;5.27;;;3.83;;
16954;SDS011;8594;52.052;8.354;2024-03-02T14:16:50;6.80;;;4.07;;
16954;SDS011;8594;52.052;8.354;2024-03-02T14:19:16;5.70;;;4.07;;
16954;SDS011;8594;52.052;8.354;2024-03-02T14:21:43;7.00;;;4.40;;
16954;SDS011;8594;52.052;8.354;2024-03-02T14:24:10;7.43;;;4.10;;
16954;SDS011;8594;52.052;8.354;2024-03-02T14:26:37;6.40;;;3.80;;
16954;SDS011;8594;52.052;8.354;2024-03-02T14:29:05;6.83;;;4.30;;
16954;SDS011;8594;52.052;8.354;2024-03-02T14:31:32;6.13;;;4.10;;
16954;SDS011;8594;52.052;8.354;2024-03-02T14:33:59;4.90;;;3.57;;
16954;SDS011;8594;52.052;8.354;2024-03-02T14:36:26;6.83;;;4.10;;
16954;SDS011;8594;52.052;8.354;2024-03-02T14:38:53;8.03;;;4.47;;
16954;SDS011;8594;52.052;8.354;2024-03-02T14:41:20;6.67;;;3.90;;
16954;SDS011;8594;52.052;8.354;2024-03-02T14:43:49;8.17;;;3.93;;
16954;SDS011;8594;52.052;8.354;2024-03-02T14:46:17;6.13;;;3.40;;
16954;SDS011;8594;52.052;8.354;2024-03-02T14:48:44;6.57;;;3.97;;
16954;SDS011;8594;52.052;8.354;2024-03-02T14:51:12;7.33;;;3.67;;
16954;SDS011;8594;52.052;8.354;2024-03-02T14:53:39;9.37;;;3.70;;